sensor_id;sensor_type;location;lat;lon;timestamp;pressure;altitude;pressure_sealevel;temperature;humidity
21185;BME280;18176;49.502;11.754;2024-03-23T00:54:41;96240.22;;;13.88;58.14
21185;BME280;18176;49.502;11.754;2024-03-23T00:58:58;96233.81;;;13.84;58.04
21185;BME280;18176;49.502;11.754;2024-03-23T01:03:14;96220.25;;;13.75;58.06
21185;BME280;18176;49.502;11.754;2024-03-23T01:07:31;96226.09;;;13.62;58.78
21185;BME280;18176;49.502;11.754;2024-03-23T01:11:51;96203.47;;;13.50;58.50
21185;BME280;18176;49.502;11.754;2024-03-23T01:16:07;96194.97;;;13.53;58.56
21185;BME280;18176;49.502;11.754;2024-03-23T01:20:24;96187.50;;;13.34;58.74
21185;BME280;18176;49.502;11.754;2024-03-23T01:24:41;96196.53;;;13.38;58.87
21185;BME280;18176;49.502;11.754;2024-03-23T01:29:01;96140.88;;;12.97;58.71
21185;BME280;18176;49.502;11.754;2024-03-23T01:33:18;96188.53;;;13.18;59.19
21185;BME280;18176;49.502;11.754;2024-03-23T01:37:35;96165.91;;;13.11;58.94
21185;BME280;18176;49.502;11.754;2024-03-23T01:41:52;96151.47;;;12.82;58.87
21185;BME280;18176;49.502;11.754;2024-03-23T01:46:11;96176.75;;;12.94;59.00
21185;BME280;18176;49.502;11.754;2024-03-23T01:50:29;96145.88;;;12.68;59.15
21185;BME280;18176;49.502;11.754;2024-03-23T01:54:48;96163.47;;;12.89;58.85
21185;BME280;18176;49.502;11.754;2024-03-23T01:59:06;96142.16;;;12.74;59.25
21185;BME280;18176;49.502;11.754;2024-03-23T02:03:27;96151.22;;;12.88;59.57
21185;BME280;18176;49.502;11.754;2024-03-23T02:07:44;96118.75;;;12.71;59.55
21185;BME280;18176;49.502;11.754;2024-03-23T02:12:02;96138.19;;;12.92;59.74
21185;BME280;18176;49.502;11.754;2024-03-23T02:16:20;96142.78;;;13.16;58.93
21185;BME280;18176;49.502;11.754;2024-03-23T02:20:39;96129.50;;;13.31;58.78
21185;BME280;18176;49.502;11.754;2024-03-23T02:24:59;96117.81;;;13.38;58.50
21185;BME280;18176;49.502;11.754;2024-03-23T02:29:16;96120.44;;;13.53;58.61
21185;BME280;18176;49.502;11.754;2024-03-23T02:33:33;96126.28;;;13.50;58.67
21185;BME280;18176;49.502;11.754;2024-03-23T02:37:50;96088.00;;;13.30;58.44
21185;BME280;18176;49.502;11.754;2024-03-23T02:42:09;96108.75;;;13.49;58.30
21185;BME280;18176;49.502;11.754;2024-03-23T02:46:26;96093.28;;;13.35;58.44
21185;BME280;18176;49.502;11.754;2024-03-23T02:50:43;96093.31;;;13.41;58.77
21185;BME280;18176;49.502;11.754;2024-03-23T02:55:00;96073.63;;;13.36;58.79
21185;BME280;18176;49.502;11.754;2024-03-23T02:59:19;96053.41;;;13.20;58.60
21185;BME280;18176;49.502;11.754;2024-03-23T03:03:36;96051.56;;;13.06;58.94
21185;BME280;18176;49.502;11.754;2024-03-23T03:07:53;96053.97;;;13.07;59.03
21185;BME280;18176;49.502;11.754;2024-03-23T03:12:11;96045.94;;;13.02;58.86
21185;BME280;18176;49.502;11.754;2024-03-23T03:16:31;96035.56;;;13.01;59.08
21185;BME280;18176;49.502;11.754;2024-03-23T03:20:48;96025.75;;;13.21;58.49
21185;BME280;18176;49.502;11.754;2024-03-23T03:25:06;96023.06;;;13.36;58.33
21185;BME280;18176;49.502;11.754;2024-03-23T03:29:24;96019.88;;;13.40;58.13
21185;BME280;18176;49.502;11.754;2024-03-23T03:33:44;96027.81;;;13.55;57.89
21185;BME280;18176;49.502;11.754;2024-03-23T03:38:01;96009.94;;;13.70;57.62
21185;BME280;18176;49.502;11.754;2024-03-23T03:42:18;95994.22;;;13.74;57.22
21185;BME280;18176;49.502;11.754;2024-03-23T03:46:35;95995.28;;;13.73;57.08
21185;BME280;18176;49.502;11.754;2024-03-23T03:50:55;95975.59;;;13.74;57.04
21185;BME280;18176;49.502;11.754;2024-03-23T03:55:14;95982.09;;;14.06;56.54
21185;BME280;18176;49.502;11.754;2024-03-23T03:59:31;95944.59;;;13.93;56.50
21185;BME280;18176;49.502;11.754;2024-03-23T04:03:48;95944.22;;;13.61;57.28
21185;BME280;18176;49.502;11.754;2024-03-23T04:08:08;95973.53;;;13.51;57.79
21185;BME280;18176;49.502;11.754;2024-03-23T04:12:26;95968.72;;;13.63;57.63
21185;BME280;18176;49.502;11.754;2024-03-23T04:16:43;95962.28;;;13.69;57.72
21185;BME280;18176;49.502;11.754;2024-03-23T04:21:00;95937.03;;;13.56;57.74
21185;BME280;18176;49.502;11.754;2024-03-23T04:25:19;95925.63;;;13.56;57.55
21185;BME280;18176;49.502;11.754;2024-03-23T04:29:36;95917.75;;;13.25;58.27
21185;BME280;18176;49.502;11.754;2024-03-23T04:33:53;95922.47;;;13.49;58.38
21185;BME280;18176;49.502;11.754;2024-03-23T04:38:10;95900.09;;;13.45;58.25
21185;BME280;18176;49.502;11.754;2024-03-23T04:42:31;95909.19;;;13.38;59.13
21185;BME280;18176;49.502;11.754;2024-03-23T04:46:48;95917.16;;;13.38;58.99
21185;BME280;18176;49.502;11.754;2024-03-23T04:51:05;95876.72;;;13.47;59.34
21185;BME280;18176;49.502;11.754;2024-03-23T04:55:21;95862.09;;;13.44;60.70
21185;BME280;18176;49.502;11.754;2024-03-23T04:59:41;95869.13;;;13.69;59.56
21185;BME280;18176;49.502;11.754;2024-03-23T05:03:58;95878.63;;;13.85;59.37
21185;BME280;18176;49.502;11.754;2024-03-23T05:08:15;95864.19;;;13.91;59.02
21185;BME280;18176;49.502;11.754;2024-03-23T05:12:32;95859.16;;;13.89;59.17
21185;BME280;18176;49.502;11.754;2024-03-23T05:16:52;95847.50;;;13.80;59.36
21185;BME280;18176;49.502;11.754;2024-03-23T05:21:09;95835.47;;;13.88;59.31
21185;BME280;18176;49.502;11.754;2024-03-23T05:25:26;95833.94;;;13.77;59.03
21185;BME280;18176;49.502;11.754;2024-03-23T05:29:43;95818.94;;;13.91;58.09
21185;BME280;18176;49.502;11.754;2024-03-23T05:34:02;95817.94;;;13.77;58.30
21185;BME280;18176;49.502;11.754;2024-03-23T05:38:19;95803.53;;;13.88;57.90
21185;BME280;18176;49.502;11.754;2024-03-23T05:42:36;95820.91;;;14.09;57.69
21185;BME280;18176;49.502;11.754;2024-03-23T05:46:54;95836.75;;;14.29;56.93
21185;BME280;18176;49.502;11.754;2024-03-23T05:51:13;95841.94;;;14.49;56.53
21185;BME280;18176;49.502;11.754;2024-03-23T05:55:30;95819.72;;;14.59;55.87
21185;BME280;18176;49.502;11.754;2024-03-23T05:59:47;95818.38;;;14.61;56.17
21185;BME280;18176;49.502;11.754;2024-03-23T06:04:04;95818.84;;;14.68;55.79
21185;BME280;18176;49.502;11.754;2024-03-23T06:08:24;95804.63;;;14.97;55.51
21185;BME280;18176;49.502;11.754;2024-03-23T06:12:41;95791.22;;;15.25;53.97
21185;BME280;18176;49.502;11.754;2024-03-23T06:16:58;95793.94;;;15.44;53.94
21185;BME280;18176;49.502;11.754;2024-03-23T06:21:15;95788.78;;;16.03;53.41
21185;BME280;18176;49.502;11.754;2024-03-23T06:25:34;95786.50;;;16.75;52.13
21185;BME280;18176;49.502;11.754;2024-03-23T06:29:51;95784.19;;;17.36;49.94
21185;BME280;18176;49.502;11.754;2024-03-23T06:34:08;95784.91;;;17.28;49.83
21185;BME280;18176;49.502;11.754;2024-03-23T06:38:25;95785.72;;;17.02;50.20
21185;BME280;18176;49.502;11.754;2024-03-23T06:42:44;95791.06;;;17.02;50.67
21185;BME280;18176;49.502;11.754;2024-03-23T06:47:01;95786.50;;;17.16;50.78
21185;BME280;18176;49.502;11.754;2024-03-23T06:51:18;95812.19;;;16.76;51.42
21185;BME280;18176;49.502;11.754;2024-03-23T06:55:35;95828.41;;;16.79;52.87
21185;BME280;18176;49.502;11.754;2024-03-23T06:59:55;95860.56;;;15.73;56.68
21185;BME280;18176;49.502;11.754;2024-03-23T07:04:12;95837.56;;;15.11;54.90
21185;BME280;18176;49.502;11.754;2024-03-23T07:08:29;95823.66;;;15.14;55.34
21185;BME280;18176;49.502;11.754;2024-03-23T07:12:46;95829.75;;;15.19;56.23
21185;BME280;18176;49.502;11.754;2024-03-23T07:17:05;95824.41;;;14.96;56.67
21185;BME280;18176;49.502;11.754;2024-03-23T07:21:22;95813.03;;;15.32;56.30
21185;BME280;18176;49.502;11.754;2024-03-23T07:25:39;95806.78;;;15.18;57.07
21185;BME280;18176;49.502;11.754;2024-03-23T07:29:56;95804.53;;;15.07;58.25
21185;BME280;18176;49.502;11.754;2024-03-23T07:34:16;95829.75;;;14.96;58.45
21185;BME280;18176;49.502;11.754;2024-03-23T07:38:33;95824.91;;;14.98;59.14
21185;BME280;18176;49.502;11.754;2024-03-23T07:42:50;95831.50;;;14.53;60.14
21185;BME280;18176;49.502;11.754;2024-03-23T07:47:07;95835.09;;;14.38;60.55
21185;BME280;18176;49.502;11.754;2024-03-23T07:51:26;95810.63;;;14.36;60.85
21185;BME280;18176;49.502;11.754;2024-03-23T07:55:54;95831.28;;;14.49;61.51
21185;BME280;18176;49.502;11.754;2024-03-23T08:00:13;95835.94;;;14.62;61.12
21185;BME280;18176;49.502;11.754;2024-03-23T08:04:30;95816.06;;;14.16;62.65
21185;BME280;18176;49.502;11.754;2024-03-23T08:08:55;95839.75;;;14.56;62.72
21185;BME280;18176;49.502;11.754;2024-03-23T08:13:16;95818.16;;;14.24;63.01
21185;BME280;18176;49.502;11.754;2024-03-23T08:17:33;95820.22;;;14.32;62.86
21185;BME280;18176;49.502;11.754;2024-03-23T08:21:50;95836.97;;;14.04;63.82
21185;BME280;18176;49.502;11.754;2024-03-23T08:26:11;95859.47;;;14.55;63.30
21185;BME280;18176;49.502;11.754;2024-03-23T08:30:29;95863.88;;;14.70;61.80
21185;BME280;18176;49.502;11.754;2024-03-23T08:34:46;95852.00;;;14.81;61.18
21185;BME280;18176;49.502;11.754;2024-03-23T08:39:05;95852.56;;;15.07;60.53
21185;BME280;18176;49.502;11.754;2024-03-23T08:43:25;95891.47;;;14.84;60.23
21185;BME280;18176;49.502;11.754;2024-03-23T08:47:42;95888.75;;;15.13;60.16
21185;BME280;18176;49.502;11.754;2024-03-23T08:51:59;95903.69;;;14.61;61.51
21185;BME280;18176;49.502;11.754;2024-03-23T08:56:16;95948.78;;;14.87;63.21
21185;BME280;18176;49.502;11.754;2024-03-23T09:00:35;95953.34;;;14.03;64.11
21185;BME280;18176;49.502;11.754;2024-03-23T09:04:52;95967.94;;;13.57;65.15
21185;BME280;18176;49.502;11.754;2024-03-23T09:09:09;95974.66;;;13.34;65.50
21185;BME280;18176;49.502;11.754;2024-03-23T09:13:26;96007.63;;;13.33;65.58
21185;BME280;18176;49.502;11.754;2024-03-23T09:17:46;96043.28;;;12.77;64.56
21185;BME280;18176;49.502;11.754;2024-03-23T09:22:03;96019.34;;;13.32;63.57
21185;BME280;18176;49.502;11.754;2024-03-23T09:26:20;96029.19;;;12.97;63.56
21185;BME280;18176;49.502;11.754;2024-03-23T09:30:37;96016.66;;;13.43;62.00
21185;BME280;18176;49.502;11.754;2024-03-23T09:34:57;95948.88;;;13.25;62.12
21185;BME280;18176;49.502;11.754;2024-03-23T09:39:14;96009.91;;;13.80;59.44
21185;BME280;18176;49.502;11.754;2024-03-23T09:43:31;96041.69;;;13.31;59.66
21185;BME280;18176;49.502;11.754;2024-03-23T09:47:48;96048.50;;;14.52;56.55
21185;BME280;18176;49.502;11.754;2024-03-23T09:52:08;96079.25;;;14.34;55.27
21185;BME280;18176;49.502;11.754;2024-03-23T09:56:25;96050.56;;;14.06;54.64
21185;BME280;18176;49.502;11.754;2024-03-23T10:00:42;96082.38;;;13.52;56.04
21185;BME280;18176;49.502;11.754;2024-03-23T10:04:58;96100.75;;;13.13;57.62
21185;BME280;18176;49.502;11.754;2024-03-23T10:09:19;96103.91;;;13.61;55.00
21185;BME280;18176;49.502;11.754;2024-03-23T10:13:37;96130.81;;;14.58;53.93
21185;BME280;18176;49.502;11.754;2024-03-23T10:17:58;96113.13;;;15.16;52.30
21185;BME280;18176;49.502;11.754;2024-03-23T10:22:24;96099.25;;;15.19;50.10
21185;BME280;18176;49.502;11.754;2024-03-23T10:26:55;96114.19;;;14.76;48.05
21185;BME280;18176;49.502;11.754;2024-03-23T10:31:13;96130.94;;;14.33;49.31
21185;BME280;18176;49.502;11.754;2024-03-23T10:35:30;96144.75;;;14.40;47.82
21185;BME280;18176;49.502;11.754;2024-03-23T10:39:47;96145.78;;;14.49;48.32
21185;BME280;18176;49.502;11.754;2024-03-23T10:44:06;96156.81;;;14.87;46.87
21185;BME280;18176;49.502;11.754;2024-03-23T10:48:24;96164.28;;;13.95;47.90
21185;BME280;18176;49.502;11.754;2024-03-23T10:52:46;96189.06;;;13.91;47.73
21185;BME280;18176;49.502;11.754;2024-03-23T10:57:07;96221.03;;;13.61;48.41
21185;BME280;18176;49.502;11.754;2024-03-23T11:01:28;96169.66;;;13.30;48.81
21185;BME280;18176;49.502;11.754;2024-03-23T11:05:47;96201.84;;;13.28;49.43
21185;BME280;18176;49.502;11.754;2024-03-23T11:10:30;96176.56;;;13.81;47.48
21185;BME280;18176;49.502;11.754;2024-03-23T11:14:48;96194.41;;;13.71;46.09
21185;BME280;18176;49.502;11.754;2024-03-23T11:19:34;96194.75;;;15.17;43.08
21185;BME280;18176;49.502;11.754;2024-03-23T11:23:52;96167.09;;;17.36;38.98
21185;BME280;18176;49.502;11.754;2024-03-23T11:28:14;96164.34;;;17.41;38.59
21185;BME280;18176;49.502;11.754;2024-03-23T11:32:32;96167.28;;;17.26;37.76
21185;BME280;18176;49.502;11.754;2024-03-23T11:36:49;96185.72;;;16.67;38.65
21185;BME280;18176;49.502;11.754;2024-03-23T11:41:07;96183.94;;;16.34;38.82
21185;BME280;18176;49.502;11.754;2024-03-23T11:45:27;96180.22;;;16.06;37.36
21185;BME280;18176;49.502;11.754;2024-03-23T11:49:44;96199.16;;;15.81;37.73
21185;BME280;18176;49.502;11.754;2024-03-23T11:54:08;96199.38;;;15.07;38.29
21185;BME280;18176;49.502;11.754;2024-03-23T11:58:26;96214.28;;;14.59;38.80
21185;BME280;18176;49.502;11.754;2024-03-23T12:02:46;96226.50;;;14.70;38.83
21185;BME280;18176;49.502;11.754;2024-03-23T12:07:11;96192.94;;;16.14;37.49
21185;BME280;18176;49.502;11.754;2024-03-23T12:11:28;96202.00;;;17.69;33.76
21185;BME280;18176;49.502;11.754;2024-03-23T12:15:46;96227.19;;;18.18;31.96
21185;BME280;18176;49.502;11.754;2024-03-23T12:20:07;96235.19;;;17.12;35.02
21185;BME280;18176;49.502;11.754;2024-03-23T12:24:24;96219.16;;;16.41;36.30
21185;BME280;18176;49.502;11.754;2024-03-23T12:28:41;96255.28;;;15.32;37.72
21185;BME280;18176;49.502;11.754;2024-03-23T12:32:58;96244.31;;;14.85;40.19
21185;BME280;18176;49.502;11.754;2024-03-23T12:37:18;96232.19;;;14.33;41.20
21185;BME280;18176;49.502;11.754;2024-03-23T12:41:35;96223.16;;;14.34;40.55
21185;BME280;18176;49.502;11.754;2024-03-23T12:45:52;96230.00;;;15.19;40.75
21185;BME280;18176;49.502;11.754;2024-03-23T12:50:09;96200.00;;;17.61;36.71
21185;BME280;18176;49.502;11.754;2024-03-23T12:54:29;96175.94;;;17.56;35.15
21185;BME280;18176;49.502;11.754;2024-03-23T12:58:46;96187.03;;;18.13;33.37
21185;BME280;18176;49.502;11.754;2024-03-23T13:03:04;96186.16;;;18.18;32.05
21185;BME280;18176;49.502;11.754;2024-03-23T13:07:22;96193.44;;;18.45;31.35
21185;BME280;18176;49.502;11.754;2024-03-23T13:11:42;96200.72;;;18.12;30.24
21185;BME280;18176;49.502;11.754;2024-03-23T13:15:59;96200.25;;;17.03;31.36
21185;BME280;18176;49.502;11.754;2024-03-23T13:20:16;96202.25;;;16.45;32.05
21185;BME280;18176;49.502;11.754;2024-03-23T13:24:33;96224.66;;;15.97;33.29
21185;BME280;18176;49.502;11.754;2024-03-23T13:28:52;96233.25;;;15.55;32.62
21185;BME280;18176;49.502;11.754;2024-03-23T13:33:09;96208.31;;;15.31;33.02
21185;BME280;18176;49.502;11.754;2024-03-23T13:37:26;96218.09;;;14.97;33.30
21185;BME280;18176;49.502;11.754;2024-03-23T13:41:45;96239.41;;;14.13;33.81
21185;BME280;18176;49.502;11.754;2024-03-23T13:46:04;96227.22;;;15.34;33.54
21185;BME280;18176;49.502;11.754;2024-03-23T13:50:21;96203.22;;;14.86;33.19
21185;BME280;18176;49.502;11.754;2024-03-23T13:54:38;96212.19;;;15.05;33.39
21185;BME280;18176;49.502;11.754;2024-03-23T13:58:55;96212.72;;;15.07;33.18
21185;BME280;18176;49.502;11.754;2024-03-23T14:03:15;96215.25;;;15.27;33.49
21185;BME280;18176;49.502;11.754;2024-03-23T14:07:33;96201.56;;;14.95;33.29
21185;BME280;18176;49.502;11.754;2024-03-23T14:11:50;96180.56;;;14.78;33.14
21185;BME280;18176;49.502;11.754;2024-03-23T14:16:07;96188.66;;;15.17;32.72
21185;BME280;18176;49.502;11.754;2024-03-23T14:20:26;96182.41;;;14.88;32.37
21185;BME280;18176;49.502;11.754;2024-03-23T14:24:43;96185.91;;;14.78;32.15
21185;BME280;18176;49.502;11.754;2024-03-23T14:29:00;96196.31;;;14.85;32.04
21185;BME280;18176;49.502;11.754;2024-03-23T14:33:18;96160.22;;;14.38;32.46
21185;BME280;18176;49.502;11.754;2024-03-23T14:37:38;96184.75;;;15.38;31.54
21185;BME280;18176;49.502;11.754;2024-03-23T14:41:55;96194.28;;;15.10;32.60
21185;BME280;18176;49.502;11.754;2024-03-23T14:46:13;96179.69;;;14.98;32.26
21185;BME280;18176;49.502;11.754;2024-03-23T14:50:30;96164.22;;;14.95;31.99
21185;BME280;18176;49.502;11.754;2024-03-23T14:54:50;96166.34;;;15.36;31.69
21185;BME280;18176;49.502;11.754;2024-03-23T14:59:08;96169.78;;;15.47;32.05
21185;BME280;18176;49.502;11.754;2024-03-23T15:03:25;96150.41;;;15.26;31.65
21185;BME280;18176;49.502;11.754;2024-03-23T15:07:42;96175.16;;;14.98;32.30
21185;BME280;18176;49.502;11.754;2024-03-23T15:12:02;96113.03;;;14.93;32.26
21185;BME280;18176;49.502;11.754;2024-03-23T15:16:19;96157.91;;;15.92;31.88
21185;BME280;18176;49.502;11.754;2024-03-23T15:20:36;96166.09;;;16.00;31.61
21185;BME280;18176;49.502;11.754;2024-03-23T15:24:53;96157.53;;;16.74;30.94
21185;BME280;18176;49.502;11.754;2024-03-23T15:29:13;96141.94;;;18.02;29.33
21185;BME280;18176;49.502;11.754;2024-03-23T15:33:30;96132.47;;;17.08;29.65
21185;BME280;18176;49.502;11.754;2024-03-23T15:37:47;96156.06;;;16.40;30.59
21185;BME280;18176;49.502;11.754;2024-03-23T15:42:04;96152.97;;;15.75;32.13
21185;BME280;18176;49.502;11.754;2024-03-23T15:46:25;96157.09;;;15.91;32.05
21185;BME280;18176;49.502;11.754;2024-03-23T15:50:50;96151.44;;;15.69;32.85
21185;BME280;18176;49.502;11.754;2024-03-23T15:55:09;96154.38;;;15.29;33.39
21185;BME280;18176;49.502;11.754;2024-03-23T15:59:26;96161.16;;;14.72;34.38
21185;BME280;18176;49.502;11.754;2024-03-23T16:03:46;96195.44;;;14.20;35.39
21185;BME280;18176;49.502;11.754;2024-03-23T16:08:03;96227.16;;;13.61;38.90
21185;BME280;18176;49.502;11.754;2024-03-23T16:12:20;96264.72;;;12.31;48.92
21185;BME280;18176;49.502;11.754;2024-03-23T16:16:37;96287.53;;;10.88;56.57
21185;BME280;18176;49.502;11.754;2024-03-23T16:20:59;96278.31;;;10.91;58.63
21185;BME280;18176;49.502;11.754;2024-03-23T16:25:16;96235.88;;;11.39;56.48
21185;BME280;18176;49.502;11.754;2024-03-23T16:29:33;96237.53;;;11.18;57.30
21185;BME280;18176;49.502;11.754;2024-03-23T16:33:50;96250.63;;;10.82;58.90
21185;BME280;18176;49.502;11.754;2024-03-23T16:38:10;96186.34;;;11.18;58.44
21185;BME280;18176;49.502;11.754;2024-03-23T16:42:27;96233.66;;;11.89;56.61
21185;BME280;18176;49.502;11.754;2024-03-23T16:46:47;96227.69;;;12.14;54.86
21185;BME280;18176;49.502;11.754;2024-03-23T16:51:05;96233.34;;;11.81;54.33
21185;BME280;18176;49.502;11.754;2024-03-23T16:55:24;96240.78;;;11.57;53.92
21185;BME280;18176;49.502;11.754;2024-03-23T16:59:41;96244.31;;;11.36;55.06
21185;BME280;18176;49.502;11.754;2024-03-23T17:03:58;96242.69;;;10.82;55.21
21185;BME280;18176;49.502;11.754;2024-03-23T17:08:15;96241.00;;;11.24;54.73
21185;BME280;18176;49.502;11.754;2024-03-23T17:12:35;96203.63;;;10.99;54.32
21185;BME280;18176;49.502;11.754;2024-03-23T17:16:52;96207.34;;;10.98;54.23
21185;BME280;18176;49.502;11.754;2024-03-23T17:21:09;96208.56;;;10.64;54.46
21185;BME280;18176;49.502;11.754;2024-03-23T17:25:26;96219.88;;;10.81;54.54
21185;BME280;18176;49.502;11.754;2024-03-23T17:29:45;96237.41;;;10.87;54.49
21185;BME280;18176;49.502;11.754;2024-03-23T17:34:02;96192.53;;;10.53;53.68
21185;BME280;18176;49.502;11.754;2024-03-23T17:38:19;96248.22;;;10.58;54.45
21185;BME280;18176;49.502;11.754;2024-03-23T17:42:38;96241.06;;;10.81;53.43
21185;BME280;18176;49.502;11.754;2024-03-23T17:46:58;96264.72;;;11.09;53.28
21185;BME280;18176;49.502;11.754;2024-03-23T17:51:15;96265.53;;;10.88;53.51
21185;BME280;18176;49.502;11.754;2024-03-23T17:55:32;96247.59;;;11.21;52.82
21185;BME280;18176;49.502;11.754;2024-03-23T17:59:49;96272.81;;;11.24;52.94
21185;BME280;18176;49.502;11.754;2024-03-23T18:04:09;96260.31;;;11.19;53.51
21185;BME280;18176;49.502;11.754;2024-03-23T18:08:26;96252.06;;;11.16;53.58
21185;BME280;18176;49.502;11.754;2024-03-23T18:12:43;96276.59;;;10.80;54.51
21185;BME280;18176;49.502;11.754;2024-03-23T18:17:01;96314.03;;;10.88;54.61
21185;BME280;18176;49.502;11.754;2024-03-23T18:21:20;96308.00;;;10.93;54.48
21185;BME280;18176;49.502;11.754;2024-03-23T18:25:37;96310.44;;;10.78;54.17
21185;BME280;18176;49.502;11.754;2024-03-23T18:29:55;96302.47;;;10.73;53.70
21185;BME280;18176;49.502;11.754;2024-03-23T18:34:12;96310.59;;;10.88;53.84
21185;BME280;18176;49.502;11.754;2024-03-23T18:38:32;96316.06;;;11.03;52.73
21185;BME280;18176;49.502;11.754;2024-03-23T18:42:49;96311.59;;;10.82;53.31
21185;BME280;18176;49.502;11.754;2024-03-23T18:47:06;96323.06;;;10.71;53.66
21185;BME280;18176;49.502;11.754;2024-03-23T18:51:23;96310.66;;;10.54;54.46
21185;BME280;18176;49.502;11.754;2024-03-23T18:55:54;96325.78;;;9.71;57.53
21185;BME280;18176;49.502;11.754;2024-03-23T19:00:13;96320.66;;;9.98;58.01
21185;BME280;18176;49.502;11.754;2024-03-23T19:04:30;96326.34;;;10.06;58.46
21185;BME280;18176;49.502;11.754;2024-03-23T19:08:47;96313.81;;;10.02;58.46
21185;BME280;18176;49.502;11.754;2024-03-23T19:13:07;96300.84;;;9.67;59.11
21185;BME280;18176;49.502;11.754;2024-03-23T19:17:26;96317.94;;;9.76;58.76
21185;BME280;18176;49.502;11.754;2024-03-23T19:21:43;96327.88;;;10.02;58.88
21185;BME280;18176;49.502;11.754;2024-03-23T19:26:01;96303.31;;;9.90;59.16
21185;BME280;18176;49.502;11.754;2024-03-23T19:30:20;96285.75;;;9.67;59.15
21185;BME280;18176;49.502;11.754;2024-03-23T19:34:37;96295.31;;;9.68;59.57
21185;BME280;18176;49.502;11.754;2024-03-23T19:38:54;96274.84;;;9.47;59.98
21185;BME280;18176;49.502;11.754;2024-03-23T19:43:11;96268.03;;;9.35;60.49
21185;BME280;18176;49.502;11.754;2024-03-23T19:47:31;96255.38;;;9.37;60.50
21185;BME280;18176;49.502;11.754;2024-03-23T19:51:48;96280.31;;;9.74;60.33
21185;BME280;18176;49.502;11.754;2024-03-23T19:56:07;96278.81;;;9.78;61.00
21185;BME280;18176;49.502;11.754;2024-03-23T20:00:24;96279.22;;;9.86;61.04
21185;BME280;18176;49.502;11.754;2024-03-23T20:04:44;96255.63;;;9.52;61.64
21185;BME280;18176;49.502;11.754;2024-03-23T20:09:00;96294.47;;;9.06;61.49
21185;BME280;18176;49.502;11.754;2024-03-23T20:13:18;96287.91;;;8.69;62.43
21185;BME280;18176;49.502;11.754;2024-03-23T20:17:35;96254.25;;;8.76;61.76
21185;BME280;18176;49.502;11.754;2024-03-23T20:21:57;96270.94;;;8.93;61.98
21185;BME280;18176;49.502;11.754;2024-03-23T20:26:14;96256.72;;;9.23;61.41
21185;BME280;18176;49.502;11.754;2024-03-23T20:30:32;96263.81;;;9.22;61.31
21185;BME280;18176;49.502;11.754;2024-03-23T20:34:48;96267.84;;;9.25;61.44
21185;BME280;18176;49.502;11.754;2024-03-23T20:39:08;96262.81;;;9.23;60.76
21185;BME280;18176;49.502;11.754;2024-03-23T20:43:26;96263.13;;;8.70;62.81
21185;BME280;18176;49.502;11.754;2024-03-23T20:47:43;96243.09;;;8.86;62.19
21185;BME280;18176;49.502;11.754;2024-03-23T20:52:00;96260.31;;;8.88;62.38
21185;BME280;18176;49.502;11.754;2024-03-23T20:56:19;96257.38;;;9.01;61.60
21185;BME280;18176;49.502;11.754;2024-03-23T21:00:36;96265.19;;;8.96;61.70
21185;BME280;18176;49.502;11.754;2024-03-23T21:04:53;96256.63;;;9.17;61.64
21185;BME280;18176;49.502;11.754;2024-03-23T21:09:10;96264.28;;;9.19;61.27
21185;BME280;18176;49.502;11.754;2024-03-23T21:13:32;96278.03;;;9.04;61.46
21185;BME280;18176;49.502;11.754;2024-03-23T21:17:49;96259.00;;;9.02;60.81
21185;BME280;18176;49.502;11.754;2024-03-23T21:22:06;96267.94;;;9.01;60.97
21185;BME280;18176;49.502;11.754;2024-03-23T21:26:23;96256.03;;;8.87;61.63
21185;BME280;18176;49.502;11.754;2024-03-23T21:30:42;96244.63;;;8.70;61.74
21185;BME280;18176;49.502;11.754;2024-03-23T21:35:00;96241.22;;;8.58;61.32
21185;BME280;18176;49.502;11.754;2024-03-23T21:39:17;96239.03;;;8.55;61.57
21185;BME280;18176;49.502;11.754;2024-03-23T21:43:34;96233.88;;;8.48;61.30
21185;BME280;18176;49.502;11.754;2024-03-23T21:47:53;96259.72;;;8.46;61.55
21185;BME280;18176;49.502;11.754;2024-03-23T21:52:10;96272.69;;;8.48;61.84
21185;BME280;18176;49.502;11.754;2024-03-23T21:56:27;96225.09;;;7.97;61.17
21185;BME280;18176;49.502;11.754;2024-03-23T22:00:44;96241.59;;;8.27;61.03
21185;BME280;18176;49.502;11.754;2024-03-23T22:05:04;96247.69;;;8.39;60.83
21185;BME280;18176;49.502;11.754;2024-03-23T22:09:21;96239.59;;;8.57;60.42
21185;BME280;18176;49.502;11.754;2024-03-23T22:13:39;96236.97;;;8.57;60.34
21185;BME280;18176;49.502;11.754;2024-03-23T22:17:55;96228.16;;;8.52;60.16
21185;BME280;18176;49.502;11.754;2024-03-23T22:22:15;96235.53;;;7.80;62.04
21185;BME280;18176;49.502;11.754;2024-03-23T22:26:32;96246.09;;;8.38;60.77
21185;BME280;18176;49.502;11.754;2024-03-23T22:30:56;96230.03;;;8.05;61.30
21185;BME280;18176;49.502;11.754;2024-03-23T22:35:14;96256.66;;;8.38;60.83
21185;BME280;18176;49.502;11.754;2024-03-23T22:39:35;96255.97;;;8.08;61.38
21185;BME280;18176;49.502;11.754;2024-03-23T22:43:52;96246.28;;;7.55;61.44
21185;BME280;18176;49.502;11.754;2024-03-23T22:48:09;96258.34;;;7.98;61.31
21185;BME280;18176;49.502;11.754;2024-03-23T22:52:26;96257.78;;;8.19;60.75
21185;BME280;18176;49.502;11.754;2024-03-23T22:56:45;96253.88;;;8.10;60.69
21185;BME280;18176;49.502;11.754;2024-03-23T23:01:05;96262.13;;;8.25;59.63
21185;BME280;18176;49.502;11.754;2024-03-23T23:05:22;96265.13;;;8.17;59.28
21185;BME280;18176;49.502;11.754;2024-03-23T23:09:39;96260.72;;;8.57;58.95
21185;BME280;18176;49.502;11.754;2024-03-23T23:13:59;96247.72;;;8.67;58.20
21185;BME280;18176;49.502;11.754;2024-03-23T23:18:16;96256.97;;;8.41;58.88
21185;BME280;18176;49.502;11.754;2024-03-23T23:22:32;96240.09;;;8.54;58.76
21185;BME280;18176;49.502;11.754;2024-03-23T23:26:49;96247.53;;;8.45;58.85